sensor_id;sensor_type;location;lat;lon;timestamp;noise_LAeq;noise_LA_min;noise_LA_max;noise_LA01;noise_LA95
77133;Laerm;26708;50.304;19.028;2023-03-19T00:02:02;42.98;40.34;50.28;;
77133;Laerm;26708;50.304;19.028;2023-03-19T00:04:07;42.18;40.11;45.73;;
77133;Laerm;26708;50.304;19.028;2023-03-19T00:06:12;42.26;40.29;46.20;;
77133;Laerm;26708;50.304;19.028;2023-03-19T00:08:17;42.69;40.44;48.53;;
77133;Laerm;26708;50.304;19.028;2023-03-19T00:10:24;42.52;40.39;46.11;;
77133;Laerm;26708;50.304;19.028;2023-03-19T00:12:29;42.06;40.13;44.32;;
77133;Laerm;26708;50.304;19.028;2023-03-19T00:14:34;43.73;40.36;49.87;;
77133;Laerm;26708;50.304;19.028;2023-03-19T00:16:39;42.33;40.49;44.44;;
77133;Laerm;26708;50.304;19.028;2023-03-19T00:18:44;43.29;40.61;50.02;;
77133;Laerm;26708;50.304;19.028;2023-03-19T00:20:49;42.77;40.40;48.55;;
77133;Laerm;26708;50.304;19.028;2023-03-19T00:22:54;46.64;40.35;62.61;;
77133;Laerm;26708;50.304;19.028;2023-03-19T00:24:59;42.62;40.59;45.93;;
77133;Laerm;26708;50.304;19.028;2023-03-19T00:27:07;42.65;40.69;46.88;;
77133;Laerm;26708;50.304;19.028;2023-03-19T00:29:13;42.24;40.51;45.13;;
77133;Laerm;26708;50.304;19.028;2023-03-19T00:31:18;42.49;40.29;47.05;;
77133;Laerm;26708;50.304;19.028;2023-03-19T00:33:24;43.14;40.65;51.05;;
77133;Laerm;26708;50.304;19.028;2023-03-19T00:35:29;43.01;40.27;49.17;;
77133;Laerm;26708;50.304;19.028;2023-03-19T00:37:35;42.12;40.10;44.39;;
77133;Laerm;26708;50.304;19.028;2023-03-19T00:39:42;42.37;40.63;46.37;;
77133;Laerm;26708;50.304;19.028;2023-03-19T00:41:49;42.46;40.14;48.83;;
77133;Laerm;26708;50.304;19.028;2023-03-19T00:43:58;42.08;40.13;44.25;;
77133;Laerm;26708;50.304;19.028;2023-03-19T00:46:05;42.52;40.30;47.62;;
77133;Laerm;26708;50.304;19.028;2023-03-19T00:48:09;43.02;40.88;49.50;;
77133;Laerm;26708;50.304;19.028;2023-03-19T00:50:15;42.63;40.53;48.41;;
77133;Laerm;26708;50.304;19.028;2023-03-19T00:52:19;42.61;40.44;59.90;;
77133;Laerm;26708;50.304;19.028;2023-03-19T00:54:24;42.68;40.58;46.77;;
77133;Laerm;26708;50.304;19.028;2023-03-19T00:56:30;42.80;40.51;48.03;;
77133;Laerm;26708;50.304;19.028;2023-03-19T00:58:35;43.13;40.60;52.38;;
77133;Laerm;26708;50.304;19.028;2023-03-19T01:00:44;43.35;40.92;50.48;;
77133;Laerm;26708;50.304;19.028;2023-03-19T01:02:50;43.87;40.75;52.84;;
77133;Laerm;26708;50.304;19.028;2023-03-19T01:04:54;42.97;40.75;48.96;;
77133;Laerm;26708;50.304;19.028;2023-03-19T01:06:59;42.12;40.31;43.96;;
77133;Laerm;26708;50.304;19.028;2023-03-19T01:09:04;42.84;40.28;48.60;;
77133;Laerm;26708;50.304;19.028;2023-03-19T01:11:13;42.65;40.65;48.18;;
77133;Laerm;26708;50.304;19.028;2023-03-19T01:13:19;42.55;40.79;44.85;;
77133;Laerm;26708;50.304;19.028;2023-03-19T01:15:24;43.42;40.93;48.62;;
77133;Laerm;26708;50.304;19.028;2023-03-19T01:17:31;42.65;40.48;47.29;;
77133;Laerm;26708;50.304;19.028;2023-03-19T01:19:36;43.51;40.68;49.40;;
77133;Laerm;26708;50.304;19.028;2023-03-19T01:21:42;43.14;40.80;47.18;;
77133;Laerm;26708;50.304;19.028;2023-03-19T01:23:49;49.30;40.75;66.55;;
77133;Laerm;26708;50.304;19.028;2023-03-19T01:25:56;45.50;40.82;61.36;;
77133;Laerm;26708;50.304;19.028;2023-03-19T01:28:04;42.80;40.66;53.04;;
77133;Laerm;26708;50.304;19.028;2023-03-19T01:30:11;42.68;40.82;48.36;;
77133;Laerm;26708;50.304;19.028;2023-03-19T01:32:47;42.80;40.50;48.13;;
77133;Laerm;26708;50.304;19.028;2023-03-19T01:35:08;42.43;40.60;45.63;;
77133;Laerm;26708;50.304;19.028;2023-03-19T01:37:13;46.16;41.02;66.87;;
77133;Laerm;26708;50.304;19.028;2023-03-19T01:39:19;50.28;41.24;67.53;;
77133;Laerm;26708;50.304;19.028;2023-03-19T01:41:25;44.03;40.93;51.76;;
77133;Laerm;26708;50.304;19.028;2023-03-19T01:43:34;42.95;40.91;49.65;;
77133;Laerm;26708;50.304;19.028;2023-03-19T01:45:53;42.74;40.78;48.64;;
77133;Laerm;26708;50.304;19.028;2023-03-19T01:48:39;44.84;39.14;53.75;;
77133;Laerm;26708;50.304;19.028;2023-03-19T01:50:49;44.23;38.67;51.93;;
77133;Laerm;26708;50.304;19.028;2023-03-19T01:53:04;42.60;37.88;52.34;;
77133;Laerm;26708;50.304;19.028;2023-03-19T01:55:22;51.57;37.73;71.50;;
77133;Laerm;26708;50.304;19.028;2023-03-19T01:57:49;41.02;37.85;48.60;;
77133;Laerm;26708;50.304;19.028;2023-03-19T02:00:29;42.47;37.77;56.53;;
77133;Laerm;26708;50.304;19.028;2023-03-19T02:02:35;41.41;38.32;47.22;;
77133;Laerm;26708;50.304;19.028;2023-03-19T02:07:45;40.58;37.91;45.06;;
77133;Laerm;26708;50.304;19.028;2023-03-19T02:09:52;40.05;37.82;42.46;;
77133;Laerm;26708;50.304;19.028;2023-03-19T02:11:58;40.26;37.61;44.52;;
77133;Laerm;26708;50.304;19.028;2023-03-19T02:14:04;40.85;36.85;52.32;;
77133;Laerm;26708;50.304;19.028;2023-03-19T02:16:10;40.71;38.01;44.72;;
77133;Laerm;26708;50.304;19.028;2023-03-19T02:18:16;48.91;38.04;67.08;;
77133;Laerm;26708;50.304;19.028;2023-03-19T02:20:34;41.94;38.42;51.56;;
77133;Laerm;26708;50.304;19.028;2023-03-19T02:22:52;41.47;38.60;46.26;;
77133;Laerm;26708;50.304;19.028;2023-03-19T02:25:06;40.24;37.66;42.93;;
77133;Laerm;26708;50.304;19.028;2023-03-19T02:27:17;46.35;37.57;62.51;;
77133;Laerm;26708;50.304;19.028;2023-03-19T02:29:25;40.48;37.43;46.31;;
77133;Laerm;26708;50.304;19.028;2023-03-19T02:31:33;40.06;37.60;44.09;;
77133;Laerm;26708;50.304;19.028;2023-03-19T02:33:39;41.20;37.99;49.45;;
77133;Laerm;26708;50.304;19.028;2023-03-19T02:35:49;41.78;38.32;49.12;;
77133;Laerm;26708;50.304;19.028;2023-03-19T02:37:54;40.49;38.12;43.93;;
77133;Laerm;26708;50.304;19.028;2023-03-19T02:40:06;40.94;38.09;45.72;;
77133;Laerm;26708;50.304;19.028;2023-03-19T02:42:18;40.95;37.89;46.08;;
77133;Laerm;26708;50.304;19.028;2023-03-19T02:44:25;41.42;37.55;53.71;;
77133;Laerm;26708;50.304;19.028;2023-03-19T02:46:30;40.67;37.78;45.36;;
77133;Laerm;26708;50.304;19.028;2023-03-19T02:48:36;40.40;37.81;44.65;;
77133;Laerm;26708;50.304;19.028;2023-03-19T02:50:41;42.80;37.69;55.29;;
77133;Laerm;26708;50.304;19.028;2023-03-19T02:52:46;43.09;38.07;58.26;;
77133;Laerm;26708;50.304;19.028;2023-03-19T02:54:52;41.05;38.54;52.43;;
77133;Laerm;26708;50.304;19.028;2023-03-19T02:56:56;40.97;37.76;47.77;;
77133;Laerm;26708;50.304;19.028;2023-03-19T02:59:04;40.15;37.96;43.29;;
77133;Laerm;26708;50.304;19.028;2023-03-19T03:01:10;43.52;38.19;59.18;;
77133;Laerm;26708;50.304;19.028;2023-03-19T03:03:15;40.53;37.74;43.51;;
77133;Laerm;26708;50.304;19.028;2023-03-19T03:05:20;40.91;38.31;46.95;;
77133;Laerm;26708;50.304;19.028;2023-03-19T03:07:25;47.64;38.07;64.28;;
77133;Laerm;26708;50.304;19.028;2023-03-19T03:09:30;40.22;37.58;44.73;;
77133;Laerm;26708;50.304;19.028;2023-03-19T03:11:34;40.06;37.72;43.04;;
77133;Laerm;26708;50.304;19.028;2023-03-19T03:13:40;40.90;37.84;50.32;;
77133;Laerm;26708;50.304;19.028;2023-03-19T03:15:47;41.43;37.81;53.17;;
77133;Laerm;26708;50.304;19.028;2023-03-19T03:17:52;48.66;37.94;64.63;;
77133;Laerm;26708;50.304;19.028;2023-03-19T03:19:58;42.33;38.26;52.69;;
77133;Laerm;26708;50.304;19.028;2023-03-19T03:22:03;41.87;37.82;71.57;;
77133;Laerm;26708;50.304;19.028;2023-03-19T03:24:09;41.31;38.20;49.10;;
77133;Laerm;26708;50.304;19.028;2023-03-19T03:26:15;40.97;37.93;46.78;;
77133;Laerm;26708;50.304;19.028;2023-03-19T03:28:19;40.36;37.84;43.01;;
77133;Laerm;26708;50.304;19.028;2023-03-19T03:30:25;40.63;38.14;45.44;;
77133;Laerm;26708;50.304;19.028;2023-03-19T03:32:33;40.42;37.39;46.62;;
77133;Laerm;26708;50.304;19.028;2023-03-19T03:34:38;50.88;38.30;67.58;;
77133;Laerm;26708;50.304;19.028;2023-03-19T03:36:43;40.90;38.41;45.72;;
77133;Laerm;26708;50.304;19.028;2023-03-19T03:38:48;40.82;37.96;46.10;;
77133;Laerm;26708;50.304;19.028;2023-03-19T03:40:53;40.31;37.91;44.82;;
77133;Laerm;26708;50.304;19.028;2023-03-19T03:43:01;41.12;38.52;46.55;;
77133;Laerm;26708;50.304;19.028;2023-03-19T03:45:10;42.00;38.59;48.91;;
77133;Laerm;26708;50.304;19.028;2023-03-19T03:47:18;45.48;38.59;51.87;;
77133;Laerm;26708;50.304;19.028;2023-03-19T03:49:25;46.30;38.78;57.25;;
77133;Laerm;26708;50.304;19.028;2023-03-19T03:51:32;40.73;38.58;44.59;;
77133;Laerm;26708;50.304;19.028;2023-03-19T03:53:37;41.33;38.46;46.12;;
77133;Laerm;26708;50.304;19.028;2023-03-19T03:55:42;45.43;37.82;62.23;;
77133;Laerm;26708;50.304;19.028;2023-03-19T03:57:48;49.51;38.74;67.54;;
77133;Laerm;26708;50.304;19.028;2023-03-19T03:59:55;48.43;38.30;67.09;;
77133;Laerm;26708;50.304;19.028;2023-03-19T04:02:00;46.24;38.22;65.69;;
77133;Laerm;26708;50.304;19.028;2023-03-19T04:04:12;48.61;38.39;66.69;;
77133;Laerm;26708;50.304;19.028;2023-03-19T04:10:42;40.76;38.15;45.20;;
77133;Laerm;26708;50.304;19.028;2023-03-19T04:12:46;40.65;38.31;44.95;;
77133;Laerm;26708;50.304;19.028;2023-03-19T04:14:51;42.68;38.23;54.77;;
77133;Laerm;26708;50.304;19.028;2023-03-19T04:16:56;41.89;38.67;49.57;;
77133;Laerm;26708;50.304;19.028;2023-03-19T04:19:01;42.03;38.86;49.75;;
77133;Laerm;26708;50.304;19.028;2023-03-19T04:21:08;47.49;39.21;63.52;;
77133;Laerm;26708;50.304;19.028;2023-03-19T04:23:13;43.79;38.64;51.30;;
77133;Laerm;26708;50.304;19.028;2023-03-19T04:25:18;42.15;38.53;57.71;;
77133;Laerm;26708;50.304;19.028;2023-03-19T04:27:26;42.48;39.00;52.06;;
77133;Laerm;26708;50.304;19.028;2023-03-19T04:29:32;51.34;39.01;66.61;;
77133;Laerm;26708;50.304;19.028;2023-03-19T04:31:36;44.86;38.65;59.24;;
77133;Laerm;26708;50.304;19.028;2023-03-19T04:33:41;50.17;38.73;66.28;;
77133;Laerm;26708;50.304;19.028;2023-03-19T04:35:47;53.27;39.69;68.39;;
77133;Laerm;26708;50.304;19.028;2023-03-19T04:37:53;43.03;38.51;70.05;;
77133;Laerm;26708;50.304;19.028;2023-03-19T04:39:58;42.13;38.60;51.62;;
77133;Laerm;26708;50.304;19.028;2023-03-19T04:42:06;42.49;38.97;48.99;;
77133;Laerm;26708;50.304;19.028;2023-03-19T04:44:21;41.79;38.66;59.56;;
77133;Laerm;26708;50.304;19.028;2023-03-19T04:46:26;41.39;38.38;46.35;;
77133;Laerm;26708;50.304;19.028;2023-03-19T04:48:32;41.81;38.55;49.50;;
77133;Laerm;26708;50.304;19.028;2023-03-19T04:50:44;42.46;38.62;50.71;;
77133;Laerm;26708;50.304;19.028;2023-03-19T04:52:52;50.60;38.47;67.81;;
77133;Laerm;26708;50.304;19.028;2023-03-19T04:54:59;43.22;38.91;52.19;;
77133;Laerm;26708;50.304;19.028;2023-03-19T04:57:05;42.20;38.50;53.65;;
77133;Laerm;26708;50.304;19.028;2023-03-19T04:59:13;43.04;38.37;60.05;;
77133;Laerm;26708;50.304;19.028;2023-03-19T05:01:22;44.28;38.48;59.51;;
77133;Laerm;26708;50.304;19.028;2023-03-19T05:03:40;41.93;38.73;51.81;;
77133;Laerm;26708;50.304;19.028;2023-03-19T05:05:45;46.88;38.71;62.27;;
77133;Laerm;26708;50.304;19.028;2023-03-19T05:07:51;41.75;38.56;55.19;;
77133;Laerm;26708;50.304;19.028;2023-03-19T05:09:57;42.02;38.83;49.78;;
77133;Laerm;26708;50.304;19.028;2023-03-19T05:12:02;41.90;38.81;50.99;;
77133;Laerm;26708;50.304;19.028;2023-03-19T05:14:13;42.73;38.55;50.46;;
77133;Laerm;26708;50.304;19.028;2023-03-19T05:16:45;42.05;38.54;47.77;;
77133;Laerm;26708;50.304;19.028;2023-03-19T05:18:49;42.03;38.56;50.45;;
77133;Laerm;26708;50.304;19.028;2023-03-19T05:20:55;41.82;38.48;53.17;;
77133;Laerm;26708;50.304;19.028;2023-03-19T05:23:01;48.55;39.06;64.30;;
77133;Laerm;26708;50.304;19.028;2023-03-19T05:25:16;49.61;39.35;63.83;;
77133;Laerm;26708;50.304;19.028;2023-03-19T05:27:22;46.87;39.04;61.60;;
77133;Laerm;26708;50.304;19.028;2023-03-19T05:29:35;50.07;39.91;67.12;;
77133;Laerm;26708;50.304;19.028;2023-03-19T05:32:00;51.09;40.93;66.20;;
77133;Laerm;26708;50.304;19.028;2023-03-19T05:34:08;50.59;40.29;67.20;;
77133;Laerm;26708;50.304;19.028;2023-03-19T05:36:14;44.72;39.63;61.01;;
77133;Laerm;26708;50.304;19.028;2023-03-19T05:38:41;48.32;39.51;64.74;;
77133;Laerm;26708;50.304;19.028;2023-03-19T05:40:53;50.71;39.35;68.85;;
77133;Laerm;26708;50.304;19.028;2023-03-19T05:43:05;42.53;39.12;53.42;;
77133;Laerm;26708;50.304;19.028;2023-03-19T05:45:11;51.68;39.29;72.05;;
77133;Laerm;26708;50.304;19.028;2023-03-19T05:47:26;53.85;40.20;69.13;;
77133;Laerm;26708;50.304;19.028;2023-03-19T05:49:32;50.65;39.62;69.31;;
77133;Laerm;26708;50.304;19.028;2023-03-19T05:51:38;44.04;39.40;64.63;;
77133;Laerm;26708;50.304;19.028;2023-03-19T05:53:45;51.77;39.62;70.66;;
77133;Laerm;26708;50.304;19.028;2023-03-19T05:56:19;45.42;40.40;54.82;;
77133;Laerm;26708;50.304;19.028;2023-03-19T05:58:44;47.39;39.34;72.27;;
77133;Laerm;26708;50.304;19.028;2023-03-19T06:00:55;57.63;39.52;79.05;;
77133;Laerm;26708;50.304;19.028;2023-03-19T06:03:02;57.81;48.04;66.23;;
77133;Laerm;26708;50.304;19.028;2023-03-19T06:05:22;52.16;39.02;66.83;;
77133;Laerm;26708;50.304;19.028;2023-03-19T06:07:29;51.36;38.87;68.70;;
77133;Laerm;26708;50.304;19.028;2023-03-19T06:09:35;43.56;38.87;52.77;;
77133;Laerm;26708;50.304;19.028;2023-03-19T06:11:41;54.13;39.98;70.75;;
77133;Laerm;26708;50.304;19.028;2023-03-19T06:14:14;53.26;40.29;68.36;;
77133;Laerm;26708;50.304;19.028;2023-03-19T06:16:32;44.98;40.23;57.41;;
77133;Laerm;26708;50.304;19.028;2023-03-19T06:18:40;43.22;39.70;51.81;;
77133;Laerm;26708;50.304;19.028;2023-03-19T06:20:48;43.77;39.39;55.64;;
77133;Laerm;26708;50.304;19.028;2023-03-19T06:22:53;53.84;39.83;68.60;;
77133;Laerm;26708;50.304;19.028;2023-03-19T06:24:59;45.35;37.92;59.73;;
77133;Laerm;26708;50.304;19.028;2023-03-19T06:27:06;47.89;39.20;61.24;;
77133;Laerm;26708;50.304;19.028;2023-03-19T06:29:12;43.24;39.12;61.52;;
77133;Laerm;26708;50.304;19.028;2023-03-19T06:31:21;42.78;38.66;58.91;;
77133;Laerm;26708;50.304;19.028;2023-03-19T06:33:28;52.61;38.88;69.95;;
77133;Laerm;26708;50.304;19.028;2023-03-19T06:35:37;53.62;38.66;72.83;;
77133;Laerm;26708;50.304;19.028;2023-03-19T06:37:42;50.90;38.82;68.37;;
77133;Laerm;26708;50.304;19.028;2023-03-19T06:39:48;43.68;39.35;51.32;;
77133;Laerm;26708;50.304;19.028;2023-03-19T06:41:55;41.55;38.33;53.54;;
77133;Laerm;26708;50.304;19.028;2023-03-19T06:44:03;42.79;38.74;49.35;;
77133;Laerm;26708;50.304;19.028;2023-03-19T06:46:09;42.61;38.89;60.03;;
77133;Laerm;26708;50.304;19.028;2023-03-19T06:48:13;42.57;38.68;50.43;;
77133;Laerm;26708;50.304;19.028;2023-03-19T06:50:20;49.48;39.20;67.07;;
77133;Laerm;26708;50.304;19.028;2023-03-19T06:52:27;49.24;39.33;64.84;;
77133;Laerm;26708;50.304;19.028;2023-03-19T06:54:32;42.19;38.88;49.13;;
77133;Laerm;26708;50.304;19.028;2023-03-19T06:56:37;42.81;38.87;50.22;;
77133;Laerm;26708;50.304;19.028;2023-03-19T06:58:42;43.97;39.24;51.53;;
77133;Laerm;26708;50.304;19.028;2023-03-19T07:00:47;44.73;39.36;54.33;;
77133;Laerm;26708;50.304;19.028;2023-03-19T07:02:52;50.13;42.22;70.66;;
77133;Laerm;26708;50.304;19.028;2023-03-19T07:04:57;44.73;39.01;62.11;;
77133;Laerm;26708;50.304;19.028;2023-03-19T07:07:01;56.89;39.67;74.73;;
77133;Laerm;26708;50.304;19.028;2023-03-19T07:09:10;42.98;39.06;56.78;;
77133;Laerm;26708;50.304;19.028;2023-03-19T07:11:15;50.65;38.68;69.82;;
77133;Laerm;26708;50.304;19.028;2023-03-19T07:13:19;44.89;39.20;57.64;;
77133;Laerm;26708;50.304;19.028;2023-03-19T07:15:25;44.23;39.67;54.04;;
77133;Laerm;26708;50.304;19.028;2023-03-19T07:17:29;43.21;39.37;56.53;;
77133;Laerm;26708;50.304;19.028;2023-03-19T07:19:34;44.33;39.78;54.57;;
77133;Laerm;26708;50.304;19.028;2023-03-19T07:21:39;42.61;39.33;58.77;;
77133;Laerm;26708;50.304;19.028;2023-03-19T07:23:43;42.88;38.85;54.06;;
77133;Laerm;26708;50.304;19.028;2023-03-19T07:25:53;44.63;39.82;59.45;;
77133;Laerm;26708;50.304;19.028;2023-03-19T07:27:59;49.18;39.92;66.01;;
77133;Laerm;26708;50.304;19.028;2023-03-19T07:30:04;51.94;40.14;68.11;;
77133;Laerm;26708;50.304;19.028;2023-03-19T07:32:09;53.85;40.45;61.45;;
77133;Laerm;26708;50.304;19.028;2023-03-19T07:34:15;54.09;41.06;67.99;;
77133;Laerm;26708;50.304;19.028;2023-03-19T07:36:19;42.28;38.74;52.80;;
77133;Laerm;26708;50.304;19.028;2023-03-19T07:38:24;49.66;39.49;64.64;;
77133;Laerm;26708;50.304;19.028;2023-03-19T07:40:30;42.83;39.01;53.09;;
77133;Laerm;26708;50.304;19.028;2023-03-19T07:42:37;42.43;39.31;52.50;;
77133;Laerm;26708;50.304;19.028;2023-03-19T07:44:42;43.61;38.88;58.55;;
77133;Laerm;26708;50.304;19.028;2023-03-19T07:46:47;51.07;39.81;69.55;;
77133;Laerm;26708;50.304;19.028;2023-03-19T07:48:52;45.07;39.23;58.82;;
77133;Laerm;26708;50.304;19.028;2023-03-19T07:50:57;50.12;39.37;67.56;;
77133;Laerm;26708;50.304;19.028;2023-03-19T07:53:02;42.99;38.77;60.50;;
77133;Laerm;26708;50.304;19.028;2023-03-19T07:55:09;42.65;38.99;62.83;;
77133;Laerm;26708;50.304;19.028;2023-03-19T07:57:13;52.30;39.63;68.41;;
77133;Laerm;26708;50.304;19.028;2023-03-19T07:59:21;45.38;38.55;65.35;;
77133;Laerm;26708;50.304;19.028;2023-03-19T08:01:26;48.23;38.65;75.59;;
77133;Laerm;26708;50.304;19.028;2023-03-19T08:03:30;44.52;38.07;71.53;;
77133;Laerm;26708;50.304;19.028;2023-03-19T08:05:36;42.61;38.58;50.54;;
77133;Laerm;26708;50.304;19.028;2023-03-19T08:07:41;44.39;39.19;55.00;;
77133;Laerm;26708;50.304;19.028;2023-03-19T08:09:45;43.04;39.19;63.02;;
77133;Laerm;26708;50.304;19.028;2023-03-19T08:11:51;51.16;38.86;69.30;;
77133;Laerm;26708;50.304;19.028;2023-03-19T08:13:56;44.05;39.22;51.25;;
77133;Laerm;26708;50.304;19.028;2023-03-19T08:16:06;52.72;39.60;67.67;;
77133;Laerm;26708;50.304;19.028;2023-03-19T08:18:12;43.17;39.14;49.17;;
77133;Laerm;26708;50.304;19.028;2023-03-19T08:20:18;42.62;38.53;50.54;;
77133;Laerm;26708;50.304;19.028;2023-03-19T08:22:24;42.36;38.81;48.97;;
77133;Laerm;26708;50.304;19.028;2023-03-19T08:24:29;48.72;40.17;66.29;;
77133;Laerm;26708;50.304;19.028;2023-03-19T08:26:37;48.79;39.36;60.33;;
77133;Laerm;26708;50.304;19.028;2023-03-19T08:28:42;68.22;42.27;76.48;;
77133;Laerm;26708;50.304;19.028;2023-03-19T08:30:50;70.75;46.50;77.76;;
77133;Laerm;26708;50.304;19.028;2023-03-19T08:33:02;50.40;43.97;57.71;;
77133;Laerm;26708;50.304;19.028;2023-03-19T08:35:11;53.88;40.44;69.93;;
77133;Laerm;26708;50.304;19.028;2023-03-19T08:37:17;53.22;39.58;72.76;;
77133;Laerm;26708;50.304;19.028;2023-03-19T08:39:26;50.83;39.61;69.07;;
77133;Laerm;26708;50.304;19.028;2023-03-19T08:41:32;43.07;38.87;51.78;;
77133;Laerm;26708;50.304;19.028;2023-03-19T08:43:37;42.03;38.81;50.73;;
77133;Laerm;26708;50.304;19.028;2023-03-19T08:45:43;42.56;38.57;51.42;;
77133;Laerm;26708;50.304;19.028;2023-03-19T08:47:51;49.44;38.61;65.39;;
77133;Laerm;26708;50.304;19.028;2023-03-19T08:50:03;44.57;39.42;55.58;;
77133;Laerm;26708;50.304;19.028;2023-03-19T08:52:09;51.47;39.22;70.74;;
77133;Laerm;26708;50.304;19.028;2023-03-19T08:54:14;49.36;38.73;64.65;;
77133;Laerm;26708;50.304;19.028;2023-03-19T08:56:21;47.21;38.57;61.77;;
77133;Laerm;26708;50.304;19.028;2023-03-19T08:58:29;52.67;38.61;69.15;;
77133;Laerm;26708;50.304;19.028;2023-03-19T09:00:35;53.26;38.76;69.65;;
77133;Laerm;26708;50.304;19.028;2023-03-19T09:02:40;52.93;43.20;61.77;;
77133;Laerm;26708;50.304;19.028;2023-03-19T09:04:45;49.82;39.50;61.23;;
77133;Laerm;26708;50.304;19.028;2023-03-19T09:06:55;51.64;40.04;65.59;;
77133;Laerm;26708;50.304;19.028;2023-03-19T09:09:02;50.72;38.39;68.87;;
77133;Laerm;26708;50.304;19.028;2023-03-19T09:11:09;52.93;38.62;73.82;;
77133;Laerm;26708;50.304;19.028;2023-03-19T09:13:14;55.62;40.07;71.19;;
77133;Laerm;26708;50.304;19.028;2023-03-19T09:15:20;54.04;40.20;72.65;;
77133;Laerm;26708;50.304;19.028;2023-03-19T09:17:24;48.22;38.88;67.93;;
77133;Laerm;26708;50.304;19.028;2023-03-19T09:19:29;44.51;39.08;56.79;;
77133;Laerm;26708;50.304;19.028;2023-03-19T09:21:35;44.81;39.31;57.16;;
77133;Laerm;26708;50.304;19.028;2023-03-19T09:23:43;52.51;40.07;68.32;;
77133;Laerm;26708;50.304;19.028;2023-03-19T09:25:48;47.61;39.19;60.67;;
77133;Laerm;26708;50.304;19.028;2023-03-19T09:27:53;69.25;40.46;77.49;;
77133;Laerm;26708;50.304;19.028;2023-03-19T09:29:58;60.42;39.54;75.20;;
77133;Laerm;26708;50.304;19.028;2023-03-19T09:32:04;43.76;39.82;51.56;;
77133;Laerm;26708;50.304;19.028;2023-03-19T09:34:09;48.07;39.97;63.71;;
77133;Laerm;26708;50.304;19.028;2023-03-19T09:36:14;43.69;39.45;52.35;;
77133;Laerm;26708;50.304;19.028;2023-03-19T09:38:20;45.55;39.26;58.72;;
77133;Laerm;26708;50.304;19.028;2023-03-19T09:40:35;45.49;39.59;55.10;;
77133;Laerm;26708;50.304;19.028;2023-03-19T09:42:59;49.49;39.43;68.21;;
77133;Laerm;26708;50.304;19.028;2023-03-19T09:45:15;46.92;39.24;67.29;;
77133;Laerm;26708;50.304;19.028;2023-03-19T09:47:28;53.85;39.74;70.74;;
77133;Laerm;26708;50.304;19.028;2023-03-19T09:49:41;52.05;40.54;68.32;;
77133;Laerm;26708;50.304;19.028;2023-03-19T09:51:51;51.29;39.31;67.34;;
77133;Laerm;26708;50.304;19.028;2023-03-19T09:54:06;52.62;39.72;67.72;;
77133;Laerm;26708;50.304;19.028;2023-03-19T09:56:15;46.34;39.86;71.61;;
77133;Laerm;26708;50.304;19.028;2023-03-19T09:58:24;52.89;40.48;70.66;;
77133;Laerm;26708;50.304;19.028;2023-03-19T10:00:35;50.01;39.75;64.90;;
77133;Laerm;26708;50.304;19.028;2023-03-19T10:02:42;49.57;44.83;54.72;;
77133;Laerm;26708;50.304;19.028;2023-03-19T10:05:04;45.87;40.18;56.61;;
77133;Laerm;26708;50.304;19.028;2023-03-19T10:07:36;44.00;39.54;55.76;;
77133;Laerm;26708;50.304;19.028;2023-03-19T10:10:09;42.96;38.43;54.94;;
77133;Laerm;26708;50.304;19.028;2023-03-19T10:12:41;49.27;38.73;64.79;;
77133;Laerm;26708;50.304;19.028;2023-03-19T10:15:13;50.36;39.37;66.02;;
77133;Laerm;26708;50.304;19.028;2023-03-19T10:17:28;53.36;39.94;66.52;;
77133;Laerm;26708;50.304;19.028;2023-03-19T10:19:45;50.40;40.03;64.65;;
77133;Laerm;26708;50.304;19.028;2023-03-19T10:21:58;54.10;42.31;67.35;;
77133;Laerm;26708;50.304;19.028;2023-03-19T10:24:28;51.09;42.00;67.54;;
77133;Laerm;26708;50.304;19.028;2023-03-19T10:26:35;56.56;41.95;70.31;;
77133;Laerm;26708;50.304;19.028;2023-03-19T10:28:53;49.95;40.16;67.31;;
77133;Laerm;26708;50.304;19.028;2023-03-19T10:31:17;51.60;40.02;64.72;;
77133;Laerm;26708;50.304;19.028;2023-03-19T10:33:42;54.04;41.44;67.19;;
77133;Laerm;26708;50.304;19.028;2023-03-19T10:35:56;51.26;39.77;72.28;;
77133;Laerm;26708;50.304;19.028;2023-03-19T10:38:20;49.86;39.70;67.36;;
77133;Laerm;26708;50.304;19.028;2023-03-19T10:40:57;53.86;40.13;71.20;;
77133;Laerm;26708;50.304;19.028;2023-03-19T10:43:20;51.75;39.81;67.27;;
77133;Laerm;26708;50.304;19.028;2023-03-19T10:45:34;51.93;40.04;68.55;;
77133;Laerm;26708;50.304;19.028;2023-03-19T10:47:42;45.59;39.98;58.22;;
77133;Laerm;26708;50.304;19.028;2023-03-19T10:49:50;54.60;40.34;69.18;;
77133;Laerm;26708;50.304;19.028;2023-03-19T10:51:56;50.58;39.84;64.02;;
77133;Laerm;26708;50.304;19.028;2023-03-19T10:54:21;51.51;40.55;65.75;;
77133;Laerm;26708;50.304;19.028;2023-03-19T10:56:45;51.89;40.39;69.32;;
77133;Laerm;26708;50.304;19.028;2023-03-19T10:59:02;62.45;39.54;83.72;;
77133;Laerm;26708;50.304;19.028;2023-03-19T11:01:13;57.18;42.07;70.49;;
77133;Laerm;26708;50.304;19.028;2023-03-19T11:03:31;52.10;41.02;68.35;;
77133;Laerm;26708;50.304;19.028;2023-03-19T11:05:36;53.76;40.47;72.58;;
77133;Laerm;26708;50.304;19.028;2023-03-19T11:07:41;51.31;41.51;67.47;;
77133;Laerm;26708;50.304;19.028;2023-03-19T11:09:51;54.80;40.32;70.15;;
77133;Laerm;26708;50.304;19.028;2023-03-19T11:12:16;50.16;41.07;65.10;;
77133;Laerm;26708;50.304;19.028;2023-03-19T11:14:30;51.89;39.82;65.98;;
77133;Laerm;26708;50.304;19.028;2023-03-19T11:16:57;49.73;39.05;66.46;;
77133;Laerm;26708;50.304;19.028;2023-03-19T11:19:02;44.59;38.66;59.87;;
77133;Laerm;26708;50.304;19.028;2023-03-19T11:21:22;54.22;40.57;67.23;;
77133;Laerm;26708;50.304;19.028;2023-03-19T11:23:36;56.36;40.06;71.45;;
77133;Laerm;26708;50.304;19.028;2023-03-19T11:25:48;52.56;40.22;74.78;;
77133;Laerm;26708;50.304;19.028;2023-03-19T11:28:00;52.40;41.45;67.69;;
77133;Laerm;26708;50.304;19.028;2023-03-19T11:30:17;54.52;41.00;69.00;;
77133;Laerm;26708;50.304;19.028;2023-03-19T11:33:05;50.98;39.98;68.21;;
77133;Laerm;26708;50.304;19.028;2023-03-19T11:35:22;51.66;41.92;66.78;;
77133;Laerm;26708;50.304;19.028;2023-03-19T11:37:52;48.19;42.13;62.73;;
77133;Laerm;26708;50.304;19.028;2023-03-19T11:40:10;51.07;42.44;67.10;;
77133;Laerm;26708;50.304;19.028;2023-03-19T11:43:05;54.80;41.58;70.07;;
77133;Laerm;26708;50.304;19.028;2023-03-19T11:45:29;51.45;41.70;68.60;;
77133;Laerm;26708;50.304;19.028;2023-03-19T11:47:53;49.87;42.10;65.23;;
77133;Laerm;26708;50.304;19.028;2023-03-19T11:53:00;56.03;42.11;74.05;;
77133;Laerm;26708;50.304;19.028;2023-03-19T11:55:21;44.89;41.54;52.48;;
77133;Laerm;26708;50.304;19.028;2023-03-19T11:57:57;50.34;42.11;65.56;;
77133;Laerm;26708;50.304;19.028;2023-03-19T12:00:28;50.12;43.15;65.48;;
77133;Laerm;26708;50.304;19.028;2023-03-19T12:03:24;48.69;42.44;62.69;;
77133;Laerm;26708;50.304;19.028;2023-03-19T12:05:50;50.05;42.15;67.04;;
77133;Laerm;26708;50.304;19.028;2023-03-19T12:08:17;48.49;42.73;62.26;;